createdAt,value
2017-04-28T00:08:01.788Z,0
2017-04-28T00:18:13.351Z,0
2017-04-28T00:28:24.917Z,0
2017-04-28T00:38:36.447Z,0
2017-04-28T00:48:48.051Z,0
2017-04-28T00:58:59.608Z,0
2017-04-28T01:09:11.181Z,0
2017-04-28T01:19:22.765Z,0
2017-04-28T01:29:34.383Z,0
2017-04-28T01:39:46.038Z,0
2017-04-28T01:49:57.630Z,0
2017-04-28T02:00:09.257Z,0
2017-04-28T02:10:20.864Z,0
2017-04-28T02:20:32.511Z,0
2017-04-28T02:30:44.179Z,0
2017-04-28T02:40:55.766Z,0
2017-04-28T02:51:07.378Z,0
2017-04-28T03:01:19.062Z,0
2017-04-28T03:11:30.677Z,0
2017-04-28T03:21:42.375Z,0
2017-04-28T03:31:54.109Z,0
2017-04-28T03:42:05.886Z,0
2017-04-28T03:52:17.665Z,0
2017-04-28T04:02:29.533Z,10
2017-04-28T04:12:41.399Z,30
2017-04-28T04:22:53.251Z,55
2017-04-28T04:33:05.002Z,80
2017-04-28T04:43:16.657Z,105
2017-04-28T04:53:28.314Z,130
2017-04-28T05:03:40.004Z,195
2017-04-28T05:13:51.622Z,235
2017-04-28T05:24:03.034Z,245
2017-04-28T05:34:14.358Z,285
2017-04-28T05:44:25.580Z,255
2017-04-28T05:54:36.766Z,225
2017-04-28T06:04:47.910Z,200
2017-04-28T06:14:59.072Z,225
2017-04-28T06:25:10.189Z,215
2017-04-28T06:35:21.326Z,280
2017-04-28T06:45:32.355Z,235
2017-04-28T06:55:43.402Z,255
2017-04-28T07:05:54.397Z,300
2017-04-28T07:16:05.307Z,350
2017-04-28T07:26:16.086Z,330
2017-04-28T07:36:26.891Z,395
2017-04-28T07:46:37.579Z,460
2017-04-28T07:56:48.212Z,465
2017-04-28T08:06:58.777Z,610
2017-04-28T08:17:09.351Z,540
2017-04-28T08:27:19.839Z,580
2017-04-28T08:37:30.180Z,755
2017-04-28T08:47:40.364Z,690
2017-04-28T08:57:50.552Z,365
2017-04-28T09:08:00.957Z,610
2017-04-28T09:18:11.398Z,640
2017-04-28T09:28:21.875Z,400
2017-04-28T09:38:32.364Z,395
2017-04-28T09:48:42.912Z,325
2017-04-28T09:58:53.490Z,390
2017-04-28T10:09:03.901Z,380
2017-04-28T10:19:14.349Z,370
2017-04-28T10:29:24.848Z,515
2017-04-28T10:39:35.257Z,470
2017-04-28T10:49:45.639Z,500
2017-04-28T10:59:55.960Z,730
2017-04-28T11:10:06.163Z,670
2017-04-28T11:20:16.202Z,1745
2017-04-28T11:30:25.846Z,2060
2017-04-28T11:40:35.099Z,4195
2017-04-28T11:50:44.093Z,3510
2017-04-28T12:00:52.791Z,2530
2017-04-28T12:11:01.429Z,1455
2017-04-28T12:21:10.047Z,1880
2017-04-28T12:31:18.680Z,2280
2017-04-28T12:41:27.484Z,1115
2017-04-28T12:51:36.484Z,2150
2017-04-28T13:01:45.466Z,2175
2017-04-28T13:11:54.192Z,1655
2017-04-28T13:22:02.914Z,1330
2017-04-28T13:32:11.721Z,1485
2017-04-28T13:42:20.672Z,705
2017-04-28T13:52:29.900Z,655
2017-04-28T14:02:39.363Z,505
2017-04-28T14:12:49.029Z,785
2017-04-28T14:22:58.615Z,1020
2017-04-28T14:33:08.080Z,1070
2017-04-28T14:43:17.342Z,1105
2017-04-28T14:53:26.452Z,1360
2017-04-28T15:03:35.568Z,925
2017-04-28T15:13:44.680Z,995
2017-04-28T15:23:53.927Z,590
2017-04-28T15:34:03.389Z,440
2017-04-28T15:44:13.029Z,270
2017-04-28T15:54:22.854Z,250
2017-04-28T16:04:32.858Z,105
2017-04-28T16:14:43.098Z,105
2017-04-28T16:24:53.581Z,130
2017-04-28T16:35:04.134Z,140
2017-04-28T16:45:14.715Z,210
2017-04-28T16:55:25.242Z,275
2017-04-28T17:05:35.841Z,250
2017-04-28T17:15:46.150Z,230
2017-04-28T17:25:56.554Z,275
2017-04-28T17:36:06.959Z,215
2017-04-28T17:46:17.398Z,145
2017-04-28T17:56:27.921Z,105
2017-04-28T18:06:38.485Z,100
2017-04-28T18:16:48.989Z,65
2017-04-28T18:26:59.463Z,45
2017-04-28T18:37:09.991Z,40
2017-04-28T18:47:20.576Z,15
2017-04-28T18:57:31.299Z,0
2017-04-28T19:07:42.074Z,0
2017-04-28T19:17:52.882Z,0
2017-04-28T19:28:03.721Z,0
2017-04-28T19:38:14.527Z,0
2017-04-28T19:48:25.377Z,0
2017-04-28T19:58:36.202Z,0
2017-04-28T20:08:47.037Z,0
2017-04-28T20:18:57.924Z,0
2017-04-28T20:29:08.846Z,0
2017-04-28T20:39:19.832Z,0
2017-04-28T20:49:30.870Z,0
2017-04-28T20:59:41.944Z,0
2017-04-28T21:09:52.981Z,0
2017-04-28T21:20:04.068Z,0
2017-04-28T21:30:15.200Z,0
2017-04-28T21:40:26.414Z,0
2017-04-28T21:50:37.574Z,0
2017-04-28T22:00:48.759Z,0
2017-04-28T22:10:59.917Z,0
2017-04-28T22:21:11.097Z,0
2017-04-28T22:31:22.274Z,0
2017-04-28T22:41:33.460Z,0
2017-04-28T22:51:44.616Z,0
2017-04-28T23:01:55.818Z,0
2017-04-28T23:12:06.999Z,0
2017-04-28T23:22:18.208Z,0
2017-04-28T23:32:29.414Z,0
2017-04-28T23:42:40.630Z,0
2017-04-28T23:52:51.857Z,0
